Kibble, Illinois
Current Conditions -  °F | °C
As of 9:35 AM on Saturday 25 Oct 2014 (Local Time) from KRSV Reporting Station
Clear Clear  
Wind Chill: 65°   Ceiling: Unl
Heat Index: 65°   Visibility: 10mi
Dew Point: 59°   Wind: 9mph
Humidity: 82%   Direction: 290°WNW
Pressure: 30.03"   Gusts: NA
Location:  39.0119°N, 87.8886°W
Report Text: KRSV 251435Z AUTO 29008KT 10SM CLR 18/15 A3003 RMK AO2 T01810150
Loading
Personal Weather Stations






























Interactive Weather Map New forecast layout! Learn more

10-Day Weather Forecast

Advertisements
Track Severe Weather on mobile